sensor_id;sensor_type;location;lat;lon;timestamp;pressure;altitude;pressure_sealevel;temperature
48003;BMP280;33768;48.578;11.574;2023-04-16T00:02:49;96213.41;;;6.70
48003;BMP280;33768;48.578;11.574;2023-04-16T00:05:53;96203.09;;;6.68
48003;BMP280;33768;48.578;11.574;2023-04-16T00:08:58;96202.38;;;6.68
48003;BMP280;33768;48.578;11.574;2023-04-16T00:12:03;96206.59;;;6.63
48003;BMP280;33768;48.578;11.574;2023-04-16T00:15:08;96204.38;;;6.62
48003;BMP280;33768;48.578;11.574;2023-04-16T00:18:12;96214.97;;;6.65
48003;BMP280;33768;48.578;11.574;2023-04-16T00:21:16;96214.44;;;6.67
48003;BMP280;33768;48.578;11.574;2023-04-16T00:24:20;96207.31;;;6.64
48003;BMP280;33768;48.578;11.574;2023-04-16T00:27:24;96206.34;;;6.61
48003;BMP280;33768;48.578;11.574;2023-04-16T00:30:29;96212.53;;;6.56
48003;BMP280;33768;48.578;11.574;2023-04-16T00:33:32;96209.81;;;6.56
48003;BMP280;33768;48.578;11.574;2023-04-16T00:36:37;96204.16;;;6.54
48003;BMP280;33768;48.578;11.574;2023-04-16T00:39:42;96206.16;;;6.54
48003;BMP280;33768;48.578;11.574;2023-04-16T00:42:46;96205.69;;;6.50
48003;BMP280;33768;48.578;11.574;2023-04-16T00:45:55;96206.19;;;6.49
48003;BMP280;33768;48.578;11.574;2023-04-16T00:49:01;96220.78;;;6.40
48003;BMP280;33768;48.578;11.574;2023-04-16T00:52:06;96210.94;;;6.37
48003;BMP280;33768;48.578;11.574;2023-04-16T00:55:11;96205.50;;;6.37
48003;BMP280;33768;48.578;11.574;2023-04-16T00:58:16;96222.28;;;6.36
48003;BMP280;33768;48.578;11.574;2023-04-16T01:01:21;96211.44;;;6.36
48003;BMP280;33768;48.578;11.574;2023-04-16T01:04:25;96218.59;;;6.33
48003;BMP280;33768;48.578;11.574;2023-04-16T01:07:29;96220.34;;;6.31
48003;BMP280;33768;48.578;11.574;2023-04-16T01:10:33;96220.59;;;6.33
48003;BMP280;33768;48.578;11.574;2023-04-16T01:13:37;96221.31;;;6.33
48003;BMP280;33768;48.578;11.574;2023-04-16T01:16:42;96222.78;;;6.34
48003;BMP280;33768;48.578;11.574;2023-04-16T01:19:46;96228.19;;;6.34
48003;BMP280;33768;48.578;11.574;2023-04-16T01:22:50;96221.06;;;6.31
48003;BMP280;33768;48.578;11.574;2023-04-16T01:25:54;96232.91;;;6.34
48003;BMP280;33768;48.578;11.574;2023-04-16T01:28:58;96228.75;;;6.27
48003;BMP280;33768;48.578;11.574;2023-04-16T01:32:04;96229.00;;;6.24
48003;BMP280;33768;48.578;11.574;2023-04-16T01:35:13;96236.13;;;6.27
48003;BMP280;33768;48.578;11.574;2023-04-16T01:38:18;96233.41;;;6.27
48003;BMP280;33768;48.578;11.574;2023-04-16T01:41:22;96242.31;;;6.27
48003;BMP280;33768;48.578;11.574;2023-04-16T01:44:27;96236.13;;;6.27
48003;BMP280;33768;48.578;11.574;2023-04-16T01:47:30;96235.66;;;6.23
48003;BMP280;33768;48.578;11.574;2023-04-16T01:50:34;96232.72;;;6.21
48003;BMP280;33768;48.578;11.574;2023-04-16T01:53:39;96234.94;;;6.23
48003;BMP280;33768;48.578;11.574;2023-04-16T01:56:43;96233.97;;;6.20
48003;BMP280;33768;48.578;11.574;2023-04-16T01:59:47;96238.41;;;6.18
48003;BMP280;33768;48.578;11.574;2023-04-16T02:02:52;96239.16;;;6.18
48003;BMP280;33768;48.578;11.574;2023-04-16T02:06:02;96238.41;;;6.18
48003;BMP280;33768;48.578;11.574;2023-04-16T02:09:06;96245.56;;;6.15
48003;BMP280;33768;48.578;11.574;2023-04-16T02:12:11;96229.56;;;6.12
48003;BMP280;33768;48.578;11.574;2023-04-16T02:15:15;96239.91;;;6.13
48003;BMP280;33768;48.578;11.574;2023-04-16T02:18:19;96233.25;;;6.14
48003;BMP280;33768;48.578;11.574;2023-04-16T02:21:23;96242.84;;;6.15
48003;BMP280;33768;48.578;11.574;2023-04-16T02:24:29;96244.31;;;6.16
48003;BMP280;33768;48.578;11.574;2023-04-16T02:27:34;96239.91;;;6.13
48003;BMP280;33768;48.578;11.574;2023-04-16T02:30:50;96246.53;;;6.12
48003;BMP280;33768;48.578;11.574;2023-04-16T02:33:56;96238.41;;;6.12
48003;BMP280;33768;48.578;11.574;2023-04-16T02:37:00;96250.22;;;6.15
48003;BMP280;33768;48.578;11.574;2023-04-16T02:40:04;96251.22;;;6.17
48003;BMP280;33768;48.578;11.574;2023-04-16T02:43:08;96252.72;;;6.13
48003;BMP280;33768;48.578;11.574;2023-04-16T02:46:12;96255.44;;;6.13
48003;BMP280;33768;48.578;11.574;2023-04-16T02:49:16;96257.13;;;6.16
48003;BMP280;33768;48.578;11.574;2023-04-16T02:52:21;96257.38;;;6.18
48003;BMP280;33768;48.578;11.574;2023-04-16T02:55:25;96261.06;;;6.20
48003;BMP280;33768;48.578;11.574;2023-04-16T02:58:29;96259.56;;;6.19
48003;BMP280;33768;48.578;11.574;2023-04-16T03:01:33;96259.81;;;6.21
48003;BMP280;33768;48.578;11.574;2023-04-16T03:04:37;96260.78;;;6.23
48003;BMP280;33768;48.578;11.574;2023-04-16T03:07:41;96259.81;;;6.21
48003;BMP280;33768;48.578;11.574;2023-04-16T03:10:45;96256.88;;;6.19
48003;BMP280;33768;48.578;11.574;2023-04-16T03:13:49;96258.84;;;6.19
48003;BMP280;33768;48.578;11.574;2023-04-16T03:16:53;96261.06;;;6.20
48003;BMP280;33768;48.578;11.574;2023-04-16T03:19:58;96263.78;;;6.20
48003;BMP280;33768;48.578;11.574;2023-04-16T03:23:02;96271.16;;;6.20
48003;BMP280;33768;48.578;11.574;2023-04-16T03:26:06;96267.72;;;6.19
48003;BMP280;33768;48.578;11.574;2023-04-16T03:29:10;96265.00;;;6.19
48003;BMP280;33768;48.578;11.574;2023-04-16T03:32:14;96273.13;;;6.19
48003;BMP280;33768;48.578;11.574;2023-04-16T03:35:19;96276.34;;;6.18
48003;BMP280;33768;48.578;11.574;2023-04-16T03:38:23;96270.69;;;6.16
48003;BMP280;33768;48.578;11.574;2023-04-16T03:41:30;96281.00;;;6.17
48003;BMP280;33768;48.578;11.574;2023-04-16T03:44:35;96278.53;;;6.19
48003;BMP280;33768;48.578;11.574;2023-04-16T03:47:39;96282.75;;;6.20
48003;BMP280;33768;48.578;11.574;2023-04-16T03:50:45;96289.63;;;6.21
48003;BMP280;33768;48.578;11.574;2023-04-16T03:53:55;96281.25;;;6.19
48003;BMP280;33768;48.578;11.574;2023-04-16T03:57:00;96283.72;;;6.17
48003;BMP280;33768;48.578;11.574;2023-04-16T04:00:06;96291.84;;;6.17
48003;BMP280;33768;48.578;11.574;2023-04-16T04:03:28;96282.50;;;6.18
48003;BMP280;33768;48.578;11.574;2023-04-16T04:06:33;96292.84;;;6.20
48003;BMP280;33768;48.578;11.574;2023-04-16T04:09:37;96288.16;;;6.20
48003;BMP280;33768;48.578;11.574;2023-04-16T04:12:41;96293.31;;;6.23
48003;BMP280;33768;48.578;11.574;2023-04-16T04:15:45;96300.72;;;6.23
48003;BMP280;33768;48.578;11.574;2023-04-16T04:18:50;96298.75;;;6.23
48003;BMP280;33768;48.578;11.574;2023-04-16T04:21:54;96303.19;;;6.21
48003;BMP280;33768;48.578;11.574;2023-04-16T04:24:58;96309.59;;;6.23
48003;BMP280;33768;48.578;11.574;2023-04-16T04:28:04;96311.56;;;6.23
48003;BMP280;33768;48.578;11.574;2023-04-16T04:31:09;96307.34;;;6.22
48003;BMP280;33768;48.578;11.574;2023-04-16T04:34:13;96306.63;;;6.22
48003;BMP280;33768;48.578;11.574;2023-04-16T04:37:17;96317.22;;;6.25
48003;BMP280;33768;48.578;11.574;2023-04-16T04:40:21;96319.19;;;6.24
48003;BMP280;33768;48.578;11.574;2023-04-16T04:43:26;96315.00;;;6.23
48003;BMP280;33768;48.578;11.574;2023-04-16T04:46:30;96320.41;;;6.23
48003;BMP280;33768;48.578;11.574;2023-04-16T04:49:34;96320.41;;;6.23
48003;BMP280;33768;48.578;11.574;2023-04-16T04:52:38;96310.81;;;6.23
48003;BMP280;33768;48.578;11.574;2023-04-16T04:55:43;96320.91;;;6.22
48003;BMP280;33768;48.578;11.574;2023-04-16T04:58:50;96329.53;;;6.26
48003;BMP280;33768;48.578;11.574;2023-04-16T05:01:56;96326.56;;;6.24
48003;BMP280;33768;48.578;11.574;2023-04-16T05:05:00;96324.84;;;6.26
48003;BMP280;33768;48.578;11.574;2023-04-16T05:08:05;96332.47;;;6.28
48003;BMP280;33768;48.578;11.574;2023-04-16T05:11:09;96338.38;;;6.32
48003;BMP280;33768;48.578;11.574;2023-04-16T05:14:13;96325.06;;;6.34
48003;BMP280;33768;48.578;11.574;2023-04-16T05:17:17;96336.16;;;6.36
48003;BMP280;33768;48.578;11.574;2023-04-16T05:20:22;96340.56;;;6.39
48003;BMP280;33768;48.578;11.574;2023-04-16T05:23:29;96346.69;;;6.45
48003;BMP280;33768;48.578;11.574;2023-04-16T05:26:33;96346.91;;;6.52
48003;BMP280;33768;48.578;11.574;2023-04-16T05:29:37;96352.31;;;6.57
48003;BMP280;33768;48.578;11.574;2023-04-16T05:32:42;96344.66;;;6.61
48003;BMP280;33768;48.578;11.574;2023-04-16T05:35:46;96345.88;;;6.66
48003;BMP280;33768;48.578;11.574;2023-04-16T05:38:51;96362.13;;;6.71
48003;BMP280;33768;48.578;11.574;2023-04-16T05:41:55;96355.66;;;6.80
48003;BMP280;33768;48.578;11.574;2023-04-16T05:45:01;96366.47;;;6.85
48003;BMP280;33768;48.578;11.574;2023-04-16T05:48:07;96368.41;;;6.90
48003;BMP280;33768;48.578;11.574;2023-04-16T05:51:14;96362.22;;;6.95
48003;BMP280;33768;48.578;11.574;2023-04-16T05:54:18;96370.31;;;7.00
48003;BMP280;33768;48.578;11.574;2023-04-16T05:57:22;96363.16;;;7.03
48003;BMP280;33768;48.578;11.574;2023-04-16T06:00:26;96367.03;;;7.13
48003;BMP280;33768;48.578;11.574;2023-04-16T06:03:31;96374.59;;;7.25
48003;BMP280;33768;48.578;11.574;2023-04-16T06:06:35;96386.69;;;7.29
48003;BMP280;33768;48.578;11.574;2023-04-16T06:09:40;96381.50;;;7.31
48003;BMP280;33768;48.578;11.574;2023-04-16T06:12:44;96382.22;;;7.32
48003;BMP280;33768;48.578;11.574;2023-04-16T06:15:48;96380.50;;;7.29
48003;BMP280;33768;48.578;11.574;2023-04-16T06:18:53;96381.50;;;7.31
48003;BMP280;33768;48.578;11.574;2023-04-16T06:21:57;96379.47;;;7.37
48003;BMP280;33768;48.578;11.574;2023-04-16T06:25:01;96387.50;;;7.48
48003;BMP280;33768;48.578;11.574;2023-04-16T06:28:05;96387.72;;;7.55
48003;BMP280;33768;48.578;11.574;2023-04-16T06:31:09;96380.72;;;7.65
48003;BMP280;33768;48.578;11.574;2023-04-16T06:34:13;96382.84;;;7.78
48003;BMP280;33768;48.578;11.574;2023-04-16T06:37:17;96387.38;;;7.93
48003;BMP280;33768;48.578;11.574;2023-04-16T06:40:21;96393.50;;;7.99
48003;BMP280;33768;48.578;11.574;2023-04-16T06:43:25;96393.91;;;8.14
48003;BMP280;33768;48.578;11.574;2023-04-16T06:46:30;96396.50;;;8.25
48003;BMP280;33768;48.578;11.574;2023-04-16T06:49:34;96398.66;;;8.32
48003;BMP280;33768;48.578;11.574;2023-04-16T06:52:38;96403.28;;;8.60
48003;BMP280;33768;48.578;11.574;2023-04-16T06:55:43;96402.72;;;9.40
48003;BMP280;33768;48.578;11.574;2023-04-16T06:58:47;96403.06;;;9.80
48003;BMP280;33768;48.578;11.574;2023-04-16T07:01:51;96404.38;;;9.61
48003;BMP280;33768;48.578;11.574;2023-04-16T07:04:55;96409.47;;;9.34
48003;BMP280;33768;48.578;11.574;2023-04-16T07:08:00;96405.00;;;9.18
48003;BMP280;33768;48.578;11.574;2023-04-16T07:11:04;96413.38;;;9.02
48003;BMP280;33768;48.578;11.574;2023-04-16T07:14:08;96403.03;;;9.00
48003;BMP280;33768;48.578;11.574;2023-04-16T07:17:12;96409.63;;;9.04
48003;BMP280;33768;48.578;11.574;2023-04-16T07:20:16;96404.50;;;9.01
48003;BMP280;33768;48.578;11.574;2023-04-16T07:23:20;96400.00;;;9.04
48003;BMP280;33768;48.578;11.574;2023-04-16T07:26:25;96399.41;;;9.10
48003;BMP280;33768;48.578;11.574;2023-04-16T07:29:29;96408.91;;;9.22
48003;BMP280;33768;48.578;11.574;2023-04-16T07:32:34;96418.91;;;9.33
48003;BMP280;33768;48.578;11.574;2023-04-16T07:35:38;96409.41;;;9.39
48003;BMP280;33768;48.578;11.574;2023-04-16T07:38:42;96408.72;;;9.51
48003;BMP280;33768;48.578;11.574;2023-04-16T07:41:46;96421.66;;;9.64
48003;BMP280;33768;48.578;11.574;2023-04-16T07:44:50;96418.13;;;9.68
48003;BMP280;33768;48.578;11.574;2023-04-16T07:47:54;96415.22;;;9.79
48003;BMP280;33768;48.578;11.574;2023-04-16T07:50:58;96423.47;;;9.92
48003;BMP280;33768;48.578;11.574;2023-04-16T07:54:02;96430.00;;;10.02
48003;BMP280;33768;48.578;11.574;2023-04-16T07:57:07;96420.06;;;10.17
48003;BMP280;33768;48.578;11.574;2023-04-16T08:00:11;96424.56;;;10.15
48003;BMP280;33768;48.578;11.574;2023-04-16T08:03:18;96437.78;;;10.11
48003;BMP280;33768;48.578;11.574;2023-04-16T08:06:22;96431.69;;;10.18
48003;BMP280;33768;48.578;11.574;2023-04-16T08:09:26;96427.31;;;10.40
48003;BMP280;33768;48.578;11.574;2023-04-16T08:12:31;96439.13;;;10.61
48003;BMP280;33768;48.578;11.574;2023-04-16T08:15:35;96442.03;;;10.76
48003;BMP280;33768;48.578;11.574;2023-04-16T08:18:39;96432.47;;;10.95
48003;BMP280;33768;48.578;11.574;2023-04-16T08:21:43;96435.69;;;11.19
48003;BMP280;33768;48.578;11.574;2023-04-16T08:24:48;96442.25;;;11.36
48003;BMP280;33768;48.578;11.574;2023-04-16T08:27:52;96443.09;;;11.57
48003;BMP280;33768;48.578;11.574;2023-04-16T08:30:56;96442.56;;;11.79
48003;BMP280;33768;48.578;11.574;2023-04-16T08:34:00;96451.94;;;12.03
48003;BMP280;33768;48.578;11.574;2023-04-16T08:37:04;96450.00;;;12.31
48003;BMP280;33768;48.578;11.574;2023-04-16T08:40:08;96451.63;;;12.54
48003;BMP280;33768;48.578;11.574;2023-04-16T08:43:14;96448.47;;;12.71
48003;BMP280;33768;48.578;11.574;2023-04-16T08:46:21;96451.47;;;12.80
48003;BMP280;33768;48.578;11.574;2023-04-16T08:49:28;96449.84;;;12.84
48003;BMP280;33768;48.578;11.574;2023-04-16T08:52:36;96453.09;;;12.76
48003;BMP280;33768;48.578;11.574;2023-04-16T08:55:49;96457.94;;;12.70
48003;BMP280;33768;48.578;11.574;2023-04-16T08:58:54;96455.06;;;12.75
48003;BMP280;33768;48.578;11.574;2023-04-16T09:01:59;96462.44;;;12.80
48003;BMP280;33768;48.578;11.574;2023-04-16T09:05:05;96468.25;;;12.77
48003;BMP280;33768;48.578;11.574;2023-04-16T09:08:11;96468.25;;;12.56
48003;BMP280;33768;48.578;11.574;2023-04-16T09:11:16;96479.13;;;12.49
48003;BMP280;33768;48.578;11.574;2023-04-16T09:14:20;96482.19;;;12.66
48003;BMP280;33768;48.578;11.574;2023-04-16T09:17:24;96480.13;;;12.79
48003;BMP280;33768;48.578;11.574;2023-04-16T09:20:30;96484.47;;;13.02
48003;BMP280;33768;48.578;11.574;2023-04-16T09:23:34;96483.22;;;13.38
48003;BMP280;33768;48.578;11.574;2023-04-16T09:26:42;96491.66;;;13.47
48003;BMP280;33768;48.578;11.574;2023-04-16T09:29:46;96484.75;;;13.54
48003;BMP280;33768;48.578;11.574;2023-04-16T09:32:52;96490.88;;;13.40
48003;BMP280;33768;48.578;11.574;2023-04-16T09:36:21;96479.78;;;13.52
48003;BMP280;33768;48.578;11.574;2023-04-16T09:39:26;96485.88;;;13.73
48003;BMP280;33768;48.578;11.574;2023-04-16T09:42:35;96483.44;;;13.97
48003;BMP280;33768;48.578;11.574;2023-04-16T09:45:53;96492.91;;;13.96
48003;BMP280;33768;48.578;11.574;2023-04-16T09:49:04;96488.69;;;13.95
48003;BMP280;33768;48.578;11.574;2023-04-16T09:52:18;96486.38;;;14.07
48003;BMP280;33768;48.578;11.574;2023-04-16T09:55:26;96495.47;;;13.94
48003;BMP280;33768;48.578;11.574;2023-04-16T09:58:30;96500.38;;;13.81
48003;BMP280;33768;48.578;11.574;2023-04-16T10:01:35;96498.31;;;13.67
48003;BMP280;33768;48.578;11.574;2023-04-16T10:04:50;96494.81;;;13.59
48003;BMP280;33768;48.578;11.574;2023-04-16T10:07:59;96488.25;;;13.27
48003;BMP280;33768;48.578;11.574;2023-04-16T10:11:04;96499.75;;;12.90
48003;BMP280;33768;48.578;11.574;2023-04-16T10:14:08;96505.97;;;12.71
48003;BMP280;33768;48.578;11.574;2023-04-16T10:17:12;96502.75;;;12.59
48003;BMP280;33768;48.578;11.574;2023-04-16T10:20:17;96510.53;;;12.48
48003;BMP280;33768;48.578;11.574;2023-04-16T10:23:21;96503.25;;;12.30
48003;BMP280;33768;48.578;11.574;2023-04-16T10:26:28;96510.81;;;12.17
48003;BMP280;33768;48.578;11.574;2023-04-16T10:29:32;96513.00;;;12.18
48003;BMP280;33768;48.578;11.574;2023-04-16T10:32:37;96514.94;;;12.11
48003;BMP280;33768;48.578;11.574;2023-04-16T10:35:44;96518.72;;;11.88
48003;BMP280;33768;48.578;11.574;2023-04-16T10:38:49;96520.09;;;11.81
48003;BMP280;33768;48.578;11.574;2023-04-16T10:42:11;96517.50;;;11.96
48003;BMP280;33768;48.578;11.574;2023-04-16T10:45:15;96513.78;;;12.06
48003;BMP280;33768;48.578;11.574;2023-04-16T10:48:19;96519.97;;;12.07
48003;BMP280;33768;48.578;11.574;2023-04-16T10:51:24;96521.41;;;12.00
48003;BMP280;33768;48.578;11.574;2023-04-16T10:54:34;96522.78;;;11.94
48003;BMP280;33768;48.578;11.574;2023-04-16T10:57:38;96525.75;;;11.83
48003;BMP280;33768;48.578;11.574;2023-04-16T11:00:49;96524.13;;;11.67
48003;BMP280;33768;48.578;11.574;2023-04-16T11:03:54;96527.94;;;11.64
48003;BMP280;33768;48.578;11.574;2023-04-16T11:10:18;96529.53;;;11.93
48003;BMP280;33768;48.578;11.574;2023-04-16T11:13:23;96518.66;;;12.00
48003;BMP280;33768;48.578;11.574;2023-04-16T11:16:30;96513.78;;;12.06
48003;BMP280;33768;48.578;11.574;2023-04-16T11:19:34;96521.94;;;12.19
48003;BMP280;33768;48.578;11.574;2023-04-16T11:22:40;96510.47;;;12.20
48003;BMP280;33768;48.578;11.574;2023-04-16T11:25:45;96515.34;;;12.35
48003;BMP280;33768;48.578;11.574;2023-04-16T11:28:49;96523.34;;;12.53
48003;BMP280;33768;48.578;11.574;2023-04-16T11:31:54;96526.81;;;12.53
48003;BMP280;33768;48.578;11.574;2023-04-16T11:34:58;96525.94;;;12.58
48003;BMP280;33768;48.578;11.574;2023-04-16T11:38:06;96530.78;;;12.45
48003;BMP280;33768;48.578;11.574;2023-04-16T11:41:18;96527.63;;;12.21
48003;BMP280;33768;48.578;11.574;2023-04-16T11:44:24;96529.69;;;12.08
48003;BMP280;33768;48.578;11.574;2023-04-16T11:47:30;96526.06;;;11.92
48003;BMP280;33768;48.578;11.574;2023-04-16T11:50:34;96532.97;;;11.93
48003;BMP280;33768;48.578;11.574;2023-04-16T11:53:46;96531.59;;;12.00
48003;BMP280;33768;48.578;11.574;2023-04-16T11:56:51;96534.56;;;12.42
48003;BMP280;33768;48.578;11.574;2023-04-16T11:59:57;96534.75;;;12.84
48003;BMP280;33768;48.578;11.574;2023-04-16T12:03:01;96536.97;;;13.13
48003;BMP280;33768;48.578;11.574;2023-04-16T12:06:09;96533.56;;;13.63
48003;BMP280;33768;48.578;11.574;2023-04-16T12:09:26;96532.16;;;14.34
48003;BMP280;33768;48.578;11.574;2023-04-16T12:12:30;96530.72;;;14.92
48003;BMP280;33768;48.578;11.574;2023-04-16T12:15:48;96528.88;;;15.31
48003;BMP280;33768;48.578;11.574;2023-04-16T12:19:00;96528.53;;;15.20
48003;BMP280;33768;48.578;11.574;2023-04-16T12:22:05;96534.03;;;14.75
48003;BMP280;33768;48.578;11.574;2023-04-16T12:25:11;96534.00;;;14.46
48003;BMP280;33768;48.578;11.574;2023-04-16T12:28:35;96537.03;;;14.06
48003;BMP280;33768;48.578;11.574;2023-04-16T12:31:41;96546.69;;;13.92
48003;BMP280;33768;48.578;11.574;2023-04-16T12:34:49;96536.25;;;13.90
48003;BMP280;33768;48.578;11.574;2023-04-16T12:37:54;96534.69;;;14.09
48003;BMP280;33768;48.578;11.574;2023-04-16T12:40:58;96532.16;;;14.41
48003;BMP280;33768;48.578;11.574;2023-04-16T12:44:06;96535.69;;;14.49
48003;BMP280;33768;48.578;11.574;2023-04-16T12:47:11;96538.59;;;14.51
48003;BMP280;33768;48.578;11.574;2023-04-16T12:50:16;96536.44;;;14.64
48003;BMP280;33768;48.578;11.574;2023-04-16T12:53:20;96540.47;;;15.15
48003;BMP280;33768;48.578;11.574;2023-04-16T12:56:24;96533.84;;;15.18
48003;BMP280;33768;48.578;11.574;2023-04-16T12:59:28;96537.50;;;14.98
48003;BMP280;33768;48.578;11.574;2023-04-16T13:02:33;96535.88;;;14.80
48003;BMP280;33768;48.578;11.574;2023-04-16T13:05:39;96541.16;;;14.93
48003;BMP280;33768;48.578;11.574;2023-04-16T13:08:43;96537.88;;;15.17
48003;BMP280;33768;48.578;11.574;2023-04-16T13:11:47;96537.13;;;15.01
48003;BMP280;33768;48.578;11.574;2023-04-16T13:14:52;96531.66;;;14.79
48003;BMP280;33768;48.578;11.574;2023-04-16T13:17:56;96534.56;;;14.81
48003;BMP280;33768;48.578;11.574;2023-04-16T13:21:01;96524.50;;;14.99
48003;BMP280;33768;48.578;11.574;2023-04-16T13:24:05;96527.41;;;15.08
48003;BMP280;33768;48.578;11.574;2023-04-16T13:27:09;96527.06;;;15.19
48003;BMP280;33768;48.578;11.574;2023-04-16T13:30:14;96521.91;;;15.37
48003;BMP280;33768;48.578;11.574;2023-04-16T13:33:19;96531.41;;;15.44
48003;BMP280;33768;48.578;11.574;2023-04-16T13:36:24;96534.75;;;15.28
48003;BMP280;33768;48.578;11.574;2023-04-16T13:39:28;96526.34;;;14.81
48003;BMP280;33768;48.578;11.574;2023-04-16T13:42:32;96529.44;;;14.41
48003;BMP280;33768;48.578;11.574;2023-04-16T13:45:37;96534.13;;;14.11
48003;BMP280;33768;48.578;11.574;2023-04-16T13:48:41;96539.34;;;13.87
48003;BMP280;33768;48.578;11.574;2023-04-16T13:51:46;96544.81;;;13.79
48003;BMP280;33768;48.578;11.574;2023-04-16T13:54:50;96533.88;;;13.87
48003;BMP280;33768;48.578;11.574;2023-04-16T13:57:57;96533.13;;;13.86
48003;BMP280;33768;48.578;11.574;2023-04-16T14:01:00;96537.91;;;13.86
48003;BMP280;33768;48.578;11.574;2023-04-16T14:04:05;96542.22;;;13.74
48003;BMP280;33768;48.578;11.574;2023-04-16T14:07:10;96547.84;;;13.61
48003;BMP280;33768;48.578;11.574;2023-04-16T14:10:15;96533.53;;;13.55
48003;BMP280;33768;48.578;11.574;2023-04-16T14:13:20;96537.75;;;13.56
48003;BMP280;33768;48.578;11.574;2023-04-16T14:16:25;96535.75;;;13.57
48003;BMP280;33768;48.578;11.574;2023-04-16T14:19:30;96547.13;;;13.61
48003;BMP280;33768;48.578;11.574;2023-04-16T14:22:34;96537.75;;;13.56
48003;BMP280;33768;48.578;11.574;2023-04-16T14:25:38;96546.94;;;13.66
48003;BMP280;33768;48.578;11.574;2023-04-16T14:28:43;96537.84;;;13.71
48003;BMP280;33768;48.578;11.574;2023-04-16T14:31:47;96548.09;;;13.78
48003;BMP280;33768;48.578;11.574;2023-04-16T14:34:52;96540.53;;;13.99
48003;BMP280;33768;48.578;11.574;2023-04-16T14:37:56;96546.78;;;14.14
48003;BMP280;33768;48.578;11.574;2023-04-16T14:41:01;96537.28;;;14.22
48003;BMP280;33768;48.578;11.574;2023-04-16T14:44:05;96551.53;;;14.21
48003;BMP280;33768;48.578;11.574;2023-04-16T14:47:09;96554.81;;;14.05
48003;BMP280;33768;48.578;11.574;2023-04-16T14:50:14;96555.81;;;13.87
48003;BMP280;33768;48.578;11.574;2023-04-16T14:53:18;96554.97;;;13.64
48003;BMP280;33768;48.578;11.574;2023-04-16T14:56:22;96546.88;;;13.51
48003;BMP280;33768;48.578;11.574;2023-04-16T14:59:27;96540.31;;;13.54
48003;BMP280;33768;48.578;11.574;2023-04-16T15:02:32;96545.78;;;13.54
48003;BMP280;33768;48.578;11.574;2023-04-16T15:05:36;96543.56;;;13.53
48003;BMP280;33768;48.578;11.574;2023-04-16T15:08:41;96547.97;;;13.48
48003;BMP280;33768;48.578;11.574;2023-04-16T15:11:45;96544.88;;;13.52
48003;BMP280;33768;48.578;11.574;2023-04-16T15:14:49;96553.00;;;13.37
48003;BMP280;33768;48.578;11.574;2023-04-16T15:17:53;96541.88;;;13.43
48003;BMP280;33768;48.578;11.574;2023-04-16T15:20:59;96545.50;;;13.38
48003;BMP280;33768;48.578;11.574;2023-04-16T15:24:03;96560.91;;;13.41
48003;BMP280;33768;48.578;11.574;2023-04-16T15:27:07;96544.63;;;13.43
48003;BMP280;33768;48.578;11.574;2023-04-16T15:30:12;96547.56;;;13.44
48003;BMP280;33768;48.578;11.574;2023-04-16T15:33:16;96559.97;;;13.38
48003;BMP280;33768;48.578;11.574;2023-04-16T15:36:20;96560.75;;;13.18
48003;BMP280;33768;48.578;11.574;2023-04-16T15:39:24;96563.94;;;13.02
48003;BMP280;33768;48.578;11.574;2023-04-16T15:42:29;96558.75;;;12.91
48003;BMP280;33768;48.578;11.574;2023-04-16T15:45:34;96562.75;;;12.90
48003;BMP280;33768;48.578;11.574;2023-04-16T15:48:38;96561.41;;;12.84
48003;BMP280;33768;48.578;11.574;2023-04-16T15:51:42;96566.84;;;12.77
48003;BMP280;33768;48.578;11.574;2023-04-16T15:54:47;96566.00;;;12.69
48003;BMP280;33768;48.578;11.574;2023-04-16T15:57:52;96571.84;;;12.65
48003;BMP280;33768;48.578;11.574;2023-04-16T16:00:56;96569.09;;;12.65
48003;BMP280;33768;48.578;11.574;2023-04-16T16:04:00;96567.88;;;12.74
48003;BMP280;33768;48.578;11.574;2023-04-16T16:07:04;96573.97;;;12.80
48003;BMP280;33768;48.578;11.574;2023-04-16T16:10:09;96577.13;;;12.83
48003;BMP280;33768;48.578;11.574;2023-04-16T16:13:14;96577.84;;;12.84
48003;BMP280;33768;48.578;11.574;2023-04-16T16:16:21;96584.28;;;12.86
48003;BMP280;33768;48.578;11.574;2023-04-16T16:19:25;96583.41;;;12.91
48003;BMP280;33768;48.578;11.574;2023-04-16T16:22:29;96590.94;;;12.98
48003;BMP280;33768;48.578;11.574;2023-04-16T16:25:33;96580.66;;;12.91
48003;BMP280;33768;48.578;11.574;2023-04-16T16:28:38;96589.34;;;12.82
48003;BMP280;33768;48.578;11.574;2023-04-16T16:31:42;96587.50;;;12.78
48003;BMP280;33768;48.578;11.574;2023-04-16T16:34:46;96593.50;;;12.76
48003;BMP280;33768;48.578;11.574;2023-04-16T16:37:50;96592.31;;;12.72
48003;BMP280;33768;48.578;11.574;2023-04-16T16:40:58;96591.53;;;12.64
48003;BMP280;33768;48.578;11.574;2023-04-16T16:44:02;96590.72;;;12.56
48003;BMP280;33768;48.578;11.574;2023-04-16T16:47:06;96596.84;;;12.49
48003;BMP280;33768;48.578;11.574;2023-04-16T16:50:10;96592.78;;;12.43
48003;BMP280;33768;48.578;11.574;2023-04-16T16:53:14;96591.44;;;12.36
48003;BMP280;33768;48.578;11.574;2023-04-16T16:56:18;96590.03;;;12.22
48003;BMP280;33768;48.578;11.574;2023-04-16T16:59:23;96595.72;;;12.12
48003;BMP280;33768;48.578;11.574;2023-04-16T17:02:27;96605.13;;;12.03
48003;BMP280;33768;48.578;11.574;2023-04-16T17:05:31;96603.16;;;11.91
48003;BMP280;33768;48.578;11.574;2023-04-16T17:08:35;96617.28;;;11.82
48003;BMP280;33768;48.578;11.574;2023-04-16T17:11:40;96610.78;;;11.72
48003;BMP280;33768;48.578;11.574;2023-04-16T17:14:48;96603.84;;;11.58
48003;BMP280;33768;48.578;11.574;2023-04-16T17:17:52;96615.31;;;11.44
48003;BMP280;33768;48.578;11.574;2023-04-16T17:20:56;96614.97;;;11.35
48003;BMP280;33768;48.578;11.574;2023-04-16T17:24:00;96619.81;;;11.29
48003;BMP280;33768;48.578;11.574;2023-04-16T17:27:05;96612.00;;;11.20
48003;BMP280;33768;48.578;11.574;2023-04-16T17:30:09;96614.22;;;11.09
48003;BMP280;33768;48.578;11.574;2023-04-16T17:33:13;96625.84;;;10.96
48003;BMP280;33768;48.578;11.574;2023-04-16T17:36:17;96621.31;;;10.86
48003;BMP280;33768;48.578;11.574;2023-04-16T17:39:25;96613.50;;;10.77
48003;BMP280;33768;48.578;11.574;2023-04-16T17:42:30;96616.94;;;10.65